createdAt,value
2023-03-20T00:03:49.656Z,11.44
2023-03-20T00:08:54.344Z,11.55
2023-03-20T00:14:09.237Z,11.24
2023-03-20T00:19:20.144Z,11.25
2023-03-20T00:24:23.336Z,11.62
2023-03-20T00:29:28.036Z,11.31
2023-03-20T00:34:31.333Z,11.19
2023-03-20T00:39:36.933Z,11.17
2023-03-20T00:44:44.749Z,11.16
2023-03-20T00:49:50.788Z,11.23
2023-03-20T00:54:53.292Z,10.71
2023-03-20T01:00:08.018Z,11.06
2023-03-20T01:05:10.667Z,11.49
2023-03-20T01:10:14.006Z,11.69
2023-03-20T01:15:22.685Z,11.69
2023-03-20T01:20:28.541Z,11.40
2023-03-20T01:25:31.323Z,10.83
2023-03-20T01:30:34.466Z,11.03
2023-03-20T01:35:37.821Z,11.23
2023-03-20T01:40:49.242Z,11.38
2023-03-20T01:46:17.609Z,11.43
2023-03-20T01:51:26.463Z,11.12
2023-03-20T01:56:39.154Z,11.26
2023-03-20T02:01:44.115Z,11.46
2023-03-20T02:06:47.218Z,11.72
2023-03-20T02:11:54.995Z,10.81
2023-03-20T02:16:58.148Z,10.39
2023-03-20T02:22:22.020Z,10.16
2023-03-20T02:28:07.867Z,9.92
2023-03-20T02:34:08.297Z,10.12
2023-03-20T02:39:13.685Z,10.28
2023-03-20T02:44:43.817Z,10.42
2023-03-20T02:50:08.824Z,11.27
2023-03-20T02:55:42.636Z,11.44
2023-03-20T03:01:01.709Z,12.04
2023-03-20T03:06:18.114Z,12.26
2023-03-20T03:11:21.122Z,12.41
2023-03-20T03:16:32.344Z,12.11
2023-03-20T03:21:39.172Z,11.58
2023-03-20T03:26:42.999Z,10.77
2023-03-20T03:31:46.653Z,10.77
2023-03-20T03:37:02.463Z,10.43
2023-03-20T03:42:23.154Z,10.11
2023-03-20T03:47:51.066Z,10.01
2023-03-20T03:52:58.359Z,10.06
2023-03-20T03:58:07.560Z,10.02
2023-03-20T04:03:12.342Z,10.22
2023-03-20T04:08:16.608Z,10.01
2023-03-20T04:13:20.092Z,9.91
2023-03-20T04:18:22.535Z,9.88
2023-03-20T04:23:25.230Z,9.83
2023-03-20T04:28:28.223Z,9.79
2023-03-20T04:33:51.404Z,9.82
2023-03-20T04:39:19.775Z,9.93
2023-03-20T04:44:22.510Z,9.83
2023-03-20T04:49:25.156Z,9.85
2023-03-20T04:54:27.798Z,9.88
2023-03-20T04:59:30.313Z,9.91
2023-03-20T05:04:32.994Z,10.21
2023-03-20T05:09:35.899Z,10.34
2023-03-20T05:14:40.795Z,10.68
2023-03-20T05:19:58.348Z,10.78
2023-03-20T05:25:19.811Z,10.40
2023-03-20T05:30:37.692Z,10.44
2023-03-20T05:36:09.519Z,10.53
2023-03-20T05:41:32.384Z,10.49
2023-03-20T05:47:01.093Z,10.27
2023-03-20T05:52:22.500Z,10.25
2023-03-20T05:58:00.339Z,10.28
2023-03-20T06:03:16.423Z,10.27
2023-03-20T06:08:32.161Z,10.18
2023-03-20T06:13:36.320Z,10.21
2023-03-20T06:18:41.578Z,10.21
2023-03-20T06:23:44.930Z,10.36
2023-03-20T06:28:47.575Z,10.53
2023-03-20T06:33:50.941Z,10.83
2023-03-20T06:38:53.442Z,11.18
2023-03-20T06:43:57.516Z,11.16
2023-03-20T06:49:05.180Z,10.69
2023-03-20T06:54:07.910Z,10.67
2023-03-20T06:59:10.512Z,11.06
2023-03-20T07:04:14.815Z,11.22
2023-03-20T07:09:23.939Z,11.61
2023-03-20T07:14:26.491Z,11.35
2023-03-20T07:19:33.056Z,11.16
2023-03-20T07:24:36.158Z,11.61
2023-03-20T07:29:39.322Z,11.74
2023-03-20T07:34:49.751Z,11.49
2023-03-20T07:39:53.922Z,11.70
2023-03-20T07:45:22.345Z,11.80
2023-03-20T07:50:24.926Z,11.99
2023-03-20T07:55:27.388Z,12.38
2023-03-20T08:00:30.097Z,12.70
2023-03-20T08:05:33.610Z,13.01
2023-03-20T08:10:36.496Z,12.91
2023-03-20T08:15:39.495Z,12.94
2023-03-20T08:20:42.453Z,12.22
2023-03-20T08:25:49.562Z,11.77
2023-03-20T08:30:52.111Z,11.95
2023-03-20T08:35:58.913Z,12.20
2023-03-20T08:41:01.381Z,12.45
2023-03-20T08:46:04.915Z,13.00
2023-03-20T08:51:08.386Z,13.67
2023-03-20T08:56:11.466Z,14.08
2023-03-20T09:01:15.554Z,14.30
2023-03-20T09:06:18.046Z,13.65
2023-03-20T09:11:20.496Z,14.12
2023-03-20T09:16:22.989Z,14.37
2023-03-20T09:21:25.681Z,14.03
2023-03-20T09:26:28.165Z,14.44
2023-03-20T09:31:31.075Z,14.79
2023-03-20T09:36:34.080Z,14.73
2023-03-20T09:41:49.159Z,14.34
2023-03-20T09:47:20.374Z,13.92
2023-03-20T09:52:27.540Z,13.91
2023-03-20T09:57:41.274Z,13.81
2023-03-20T10:02:50.893Z,14.37
2023-03-20T10:08:07.691Z,14.67
2023-03-20T10:13:18.777Z,13.75
2023-03-20T10:18:29.859Z,14.25
2023-03-20T10:24:06.811Z,13.91
2023-03-20T10:29:20.859Z,13.60
2023-03-20T10:34:43.641Z,13.46
2023-03-20T10:40:24.814Z,13.43
2023-03-20T10:45:48.328Z,13.75
2023-03-20T10:51:02.352Z,14.01
2023-03-20T10:56:15.058Z,14.11
2023-03-20T11:01:20.759Z,14.15
2023-03-20T11:06:28.876Z,14.49
2023-03-20T11:11:35.518Z,14.73
2023-03-20T11:16:40.754Z,14.72
2023-03-20T11:21:47.559Z,14.85
2023-03-20T11:26:51.237Z,14.89
2023-03-20T11:31:53.997Z,14.86
2023-03-20T11:37:09.697Z,14.72
2023-03-20T11:42:28.639Z,14.61
2023-03-20T11:47:35.994Z,14.44
2023-03-20T11:52:40.460Z,14.59
2023-03-20T11:57:47.368Z,14.64
2023-03-20T12:02:50.845Z,15.97
2023-03-20T12:07:58.264Z,16.13
2023-03-20T12:13:06.741Z,15.75
2023-03-20T12:18:46.856Z,16.09
2023-03-20T12:24:01.260Z,17.60
2023-03-20T12:29:22.301Z,17.31
2023-03-20T12:34:39.953Z,16.46
2023-03-20T12:39:49.095Z,15.98
2023-03-20T12:45:11.425Z,16.00
2023-03-20T12:50:35.540Z,16.01
2023-03-20T12:55:53.717Z,15.80
2023-03-20T13:01:20.026Z,15.52
2023-03-20T13:06:39.965Z,15.68
2023-03-20T13:12:00.667Z,15.51
2023-03-20T13:17:24.830Z,17.76
2023-03-20T13:22:54.223Z,16.78
2023-03-20T13:28:20.899Z,16.05
2023-03-20T13:33:36.417Z,15.90
2023-03-20T13:38:45.377Z,15.74
2023-03-20T13:43:57.387Z,15.49
2023-03-20T13:49:08.121Z,15.29
2023-03-20T13:54:49.559Z,15.16
2023-03-20T14:00:16.937Z,15.63
2023-03-20T14:05:23.104Z,15.88
2023-03-20T14:10:25.666Z,15.46
2023-03-20T14:15:36.819Z,15.26
2023-03-20T14:20:41.903Z,15.41
2023-03-20T14:25:44.609Z,14.84
2023-03-20T14:30:53.909Z,14.73
2023-03-20T14:36:19.263Z,14.69
2023-03-20T14:41:37.564Z,14.87
2023-03-20T14:46:58.431Z,15.18
2023-03-20T14:52:26.635Z,15.16
2023-03-20T14:57:48.713Z,15.07
2023-03-20T15:03:06.513Z,15.07
2023-03-20T15:08:16.384Z,15.00
2023-03-20T15:13:20.658Z,15.03
2023-03-20T15:18:25.076Z,15.11
2023-03-20T15:23:27.852Z,15.18
2023-03-20T15:28:31.393Z,14.77
2023-03-20T15:33:42.768Z,14.84
2023-03-20T15:38:46.992Z,14.36
2023-03-20T15:43:49.565Z,14.24
2023-03-20T15:48:52.176Z,14.51
2023-03-20T15:53:55.258Z,14.42
2023-03-20T15:58:58.316Z,14.30
2023-03-20T16:04:01.248Z,14.17
2023-03-20T16:09:08.186Z,14.10
2023-03-20T16:14:22.209Z,14.25
2023-03-20T16:19:26.371Z,14.26
2023-03-20T16:24:37.226Z,14.09
2023-03-20T16:29:44.129Z,13.90
2023-03-20T16:34:51.353Z,14.26
2023-03-20T16:40:05.563Z,14.44
2023-03-20T16:45:28.375Z,13.92
2023-03-20T16:50:42.053Z,13.54
2023-03-20T16:55:52.419Z,13.31
2023-03-20T17:01:07.079Z,13.18
2023-03-20T17:06:21.748Z,13.15
2023-03-20T17:11:39.178Z,13.10
2023-03-20T17:16:42.297Z,13.06
2023-03-20T17:21:46.479Z,12.97
2023-03-20T17:26:56.446Z,12.92
2023-03-20T17:31:58.953Z,12.74
2023-03-20T17:37:03.459Z,12.82
2023-03-20T17:42:18.496Z,12.82
2023-03-20T17:47:24.245Z,12.84
2023-03-20T17:52:28.570Z,12.82
2023-03-20T17:57:35.170Z,12.84
2023-03-20T18:02:37.865Z,12.89
2023-03-20T18:07:40.605Z,12.80
2023-03-20T18:12:43.059Z,12.71
2023-03-20T18:17:45.470Z,12.92
2023-03-20T18:22:47.902Z,13.01
2023-03-20T18:27:50.424Z,13.09
2023-03-20T18:32:52.932Z,13.13
2023-03-20T18:37:55.899Z,13.13
2023-03-20T18:42:58.852Z,13.31
2023-03-20T18:48:03.992Z,13.22
2023-03-20T18:53:07.798Z,13.26
2023-03-20T18:58:21.788Z,13.31
2023-03-20T19:03:25.492Z,13.34
2023-03-20T19:08:28.149Z,13.27
2023-03-20T19:13:30.671Z,13.21
2023-03-20T19:18:33.241Z,13.10
2023-03-20T19:23:35.926Z,13.11
2023-03-20T19:28:41.168Z,13.06
2023-03-20T19:33:44.228Z,12.95
2023-03-20T19:38:46.646Z,12.98
2023-03-20T19:43:53.558Z,13.04
2023-03-20T19:48:57.982Z,12.99
2023-03-20T19:54:00.711Z,13.04
2023-03-20T19:59:03.337Z,13.07
2023-03-20T20:04:06.172Z,13.17
2023-03-20T20:09:08.858Z,13.18
2023-03-20T20:14:14.604Z,13.21
2023-03-20T20:19:17.919Z,13.21
2023-03-20T20:24:20.415Z,13.22
2023-03-20T20:29:24.557Z,13.21
2023-03-20T20:39:50.352Z,12.69
2023-03-20T20:44:52.981Z,12.66
2023-03-20T20:49:55.493Z,12.67
2023-03-20T20:55:02.820Z,12.63
2023-03-20T21:00:11.829Z,12.62
2023-03-20T21:05:16.282Z,12.56
2023-03-20T21:10:21.282Z,12.63
2023-03-20T21:15:23.883Z,12.68
2023-03-20T21:20:26.374Z,12.65
2023-03-20T21:25:47.441Z,12.69
2023-03-20T21:31:20.599Z,12.83
2023-03-20T21:36:13.136Z,12.75
2023-03-20T21:41:16.373Z,12.67
2023-03-20T21:46:58.646Z,12.58
2023-03-20T21:52:37.358Z,12.51
2023-03-20T21:57:39.724Z,12.54
2023-03-20T22:02:30.940Z,12.35
2023-03-20T22:08:15.241Z,12.36
2023-03-20T22:24:30.019Z,12.84
2023-03-20T22:30:01.650Z,12.60
2023-03-20T22:40:42.138Z,12.62
2023-03-20T22:45:14.672Z,12.72
2023-03-20T22:50:17.782Z,12.76
2023-03-20T22:55:20.747Z,12.77
2023-03-20T23:00:23.343Z,12.80
2023-03-20T23:05:26.228Z,12.67
2023-03-20T23:10:28.711Z,12.74
2023-03-20T23:15:31.571Z,12.79
2023-03-20T23:20:34.717Z,12.71
2023-03-20T23:25:40.223Z,12.44
2023-03-20T23:30:49.777Z,12.54
2023-03-20T23:36:12.503Z,12.46
2023-03-20T23:41:19.104Z,12.43
2023-03-20T23:46:21.542Z,12.35
2023-03-20T23:51:24.098Z,12.32
2023-03-20T23:56:26.762Z,12.32
